createdAt,value
2023-04-09T00:02:38.668Z,15.25
2023-04-09T00:05:06.689Z,15.18
2023-04-09T00:07:33.932Z,14.55
2023-04-09T00:10:01.180Z,14.77
2023-04-09T00:12:28.302Z,13.77
2023-04-09T00:22:13.081Z,14.57
2023-04-09T00:24:40.223Z,14.77
2023-04-09T00:36:49.841Z,15.65
2023-04-09T00:39:17.077Z,15.30
2023-04-09T00:41:44.198Z,15.68
2023-04-09T00:44:11.458Z,15.90
2023-04-09T00:46:38.653Z,16.02
2023-04-09T00:53:57.619Z,16.70
2023-04-09T00:58:51.349Z,16.25
2023-04-09T01:01:18.849Z,15.60
2023-04-09T01:11:38.205Z,17.45
2023-04-09T01:14:23.372Z,18.17
2023-04-09T01:17:05.264Z,18.25
2023-04-09T01:19:49.144Z,18.60
2023-04-09T01:22:25.315Z,19.00
2023-04-09T01:25:01.153Z,19.50
2023-04-09T01:27:44.950Z,19.00
2023-04-09T01:35:05.118Z,20.30
2023-04-09T01:37:33.090Z,20.60
2023-04-09T01:40:00.808Z,19.45
2023-04-09T01:42:28.172Z,20.70
2023-04-09T03:10:22.564Z,29.90
2023-04-09T03:12:50.061Z,27.17
2023-04-09T03:15:17.288Z,27.05
2023-04-09T03:17:44.432Z,27.77
2023-04-09T03:20:11.667Z,27.98
2023-04-09T03:27:30.866Z,23.25
2023-04-09T03:34:57.875Z,21.95
2023-04-09T03:37:25.720Z,22.52
2023-04-09T03:39:52.965Z,22.02
2023-04-09T03:52:02.957Z,22.60
2023-04-09T03:54:37.148Z,21.98
2023-04-09T03:59:30.678Z,21.88
2023-04-09T04:01:58.226Z,21.20
2023-04-09T04:06:51.720Z,22.23
2023-04-09T04:14:21.592Z,21.23
2023-04-09T04:16:54.937Z,20.50
2023-04-09T04:19:27.229Z,20.80
2023-04-09T04:21:55.435Z,21.08
2023-04-09T04:24:23.272Z,21.52
2023-04-09T04:26:50.275Z,22.73
2023-04-09T04:34:10.929Z,23.83
2023-04-09T04:36:39.133Z,23.33
2023-04-09T04:39:07.816Z,23.33
2023-04-09T04:44:00.393Z,24.75
2023-04-09T04:46:27.753Z,23.50
2023-04-09T04:48:55.047Z,24.90
2023-04-09T04:51:23.091Z,23.35
2023-04-09T04:54:07.488Z,23.10
2023-04-09T04:56:34.730Z,23.88
2023-04-09T04:59:07.991Z,25.13
2023-04-09T05:01:47.250Z,26.67
2023-04-09T05:13:56.849Z,29.48
2023-04-09T05:16:24.476Z,29.58
2023-04-09T05:23:53.518Z,30.55
2023-04-09T05:28:54.579Z,27.40
2023-04-09T05:41:13.578Z,28.80
2023-04-09T05:46:16.875Z,31.05
2023-04-09T05:48:45.162Z,30.90
2023-04-09T05:56:03.419Z,31.92
2023-04-09T05:58:48.666Z,33.38
2023-04-09T06:01:15.665Z,32.90
2023-04-09T06:03:43.790Z,31.73
2023-04-09T06:06:11.110Z,32.17
2023-04-09T06:11:04.041Z,29.85
2023-04-09T06:13:31.137Z,30.17
2023-04-09T06:15:58.295Z,23.23
2023-04-09T06:18:25.376Z,20.92
2023-04-09T06:21:01.621Z,18.92
2023-04-09T06:23:28.664Z,19.10
2023-04-09T06:25:55.911Z,19.85
2023-04-09T06:28:23.155Z,21.20
2023-04-09T06:30:50.453Z,21.40
2023-04-09T06:33:17.495Z,19.88
2023-04-09T06:43:39.102Z,18.52
2023-04-09T06:46:06.249Z,18.98
2023-04-09T06:48:33.344Z,20.20
2023-04-09T06:53:25.994Z,19.92
2023-04-09T06:55:54.046Z,20.83
2023-04-09T06:58:22.730Z,21.98
2023-04-09T07:00:49.856Z,22.23
2023-04-09T07:03:16.995Z,20.17
2023-04-09T07:05:44.051Z,20.38
2023-04-09T07:08:12.013Z,22.30
2023-04-09T07:15:58.857Z,19.45
2023-04-09T08:07:37.911Z,16.05
2023-04-09T08:10:06.371Z,15.40
2023-04-09T08:12:33.721Z,15.20
2023-04-09T09:01:23.478Z,11.88
2023-04-09T09:04:00.353Z,10.88
2023-04-09T09:06:30.320Z,9.88
2023-04-09T09:09:02.725Z,10.13
2023-04-09T09:11:30.812Z,10.25
2023-04-09T09:13:59.014Z,9.20
2023-04-09T09:16:26.274Z,8.80
2023-04-09T09:23:48.702Z,8.80
2023-04-09T09:33:42.006Z,9.50
2023-04-09T09:36:12.266Z,9.73
2023-04-09T09:38:58.227Z,9.68
2023-04-09T09:41:26.295Z,9.10
2023-04-09T09:43:53.543Z,9.75
2023-04-09T09:48:47.191Z,9.63
2023-04-09T09:51:14.938Z,9.80
2023-04-09T09:58:47.807Z,9.75
2023-04-09T10:01:18.566Z,10.05
2023-04-09T10:03:46.621Z,9.02
2023-04-09T10:06:13.979Z,9.43
2023-04-09T10:08:42.548Z,8.50
2023-04-09T10:11:09.806Z,8.95
2023-04-09T10:13:41.853Z,8.13
2023-04-09T10:16:09.420Z,8.90
2023-04-09T10:18:37.043Z,7.47
2023-04-09T10:21:08.140Z,6.82
2023-04-09T10:23:39.814Z,7.40
2023-04-09T10:26:07.058Z,6.90
2023-04-09T10:28:34.417Z,6.78
2023-04-09T10:31:01.749Z,6.35
2023-04-09T10:33:29.032Z,7.53
2023-04-09T10:38:49.086Z,6.97
2023-04-09T10:43:48.732Z,6.90
2023-04-09T10:49:18.383Z,7.00
2023-04-09T10:52:11.886Z,5.68
2023-04-09T10:54:39.630Z,6.00
2023-04-09T10:57:09.524Z,5.53
2023-04-09T11:07:13.014Z,9.43
2023-04-09T11:09:41.824Z,6.00
2023-04-09T11:12:11.590Z,5.97
2023-04-09T11:21:56.488Z,6.57
2023-04-09T11:29:44.504Z,7.93
2023-04-09T11:32:12.944Z,8.10
2023-04-09T11:34:40.188Z,8.00
2023-04-09T11:39:38.064Z,7.85
2023-04-09T11:42:05.159Z,7.80
2023-04-09T11:44:32.764Z,6.95
2023-04-09T11:47:00.200Z,6.28
2023-04-09T11:49:27.493Z,6.28
2023-04-09T11:54:20.672Z,6.13
2023-04-09T11:59:21.645Z,6.63
2023-04-09T12:01:52.243Z,7.30
2023-04-09T12:11:42.371Z,6.75
2023-04-09T12:14:13.398Z,4.85
2023-04-09T12:33:56.684Z,2.78
2023-04-09T13:51:56.198Z,2.83
2023-04-09T13:54:23.551Z,2.53
2023-04-09T14:04:27.208Z,3.35
2023-04-09T14:06:54.293Z,2.80
2023-04-09T14:09:21.538Z,2.90
2023-04-09T14:11:49.755Z,2.88
2023-04-09T14:14:17.100Z,2.67
2023-04-09T14:19:10.636Z,2.83
2023-04-09T14:21:38.236Z,2.50
2023-04-09T14:44:46.197Z,3.47
2023-04-09T14:47:13.321Z,2.80
2023-04-09T14:49:50.288Z,2.50
2023-04-09T14:54:45.523Z,2.70
2023-04-09T14:57:12.745Z,2.60
2023-04-09T14:59:39.870Z,2.67
2023-04-09T15:02:07.314Z,3.08
2023-04-09T15:04:34.985Z,2.65
2023-04-09T15:07:02.350Z,2.53
2023-04-09T15:09:29.575Z,2.80
2023-04-09T15:11:57.421Z,2.70
2023-04-09T15:16:50.291Z,2.30
2023-04-09T15:19:17.438Z,2.60
2023-04-09T15:21:44.479Z,2.75
2023-04-09T15:24:11.835Z,2.72
2023-04-09T15:26:39.081Z,3.10
2023-04-09T15:38:55.902Z,2.90
2023-04-09T15:41:24.349Z,2.97
2023-04-09T15:58:32.446Z,2.55
2023-04-09T16:01:03.449Z,2.92
2023-04-09T16:06:07.617Z,2.63
2023-04-09T16:08:35.565Z,3.15
2023-04-09T16:15:54.848Z,3.15
2023-04-09T16:23:13.462Z,2.95
2023-04-09T16:57:35.953Z,2.83
2023-04-09T17:00:07.751Z,2.85
2023-04-09T18:25:35.249Z,3.38
2023-04-09T18:28:02.610Z,3.33
2023-04-09T18:32:55.584Z,3.40
2023-04-09T18:35:23.020Z,4.10
2023-04-09T18:37:50.264Z,3.92
2023-04-09T18:40:18.954Z,4.07
2023-04-09T18:42:49.825Z,3.70
2023-04-09T18:45:16.945Z,3.92
2023-04-09T18:47:44.429Z,4.05
2023-04-09T18:50:12.615Z,3.70
2023-04-09T18:52:39.753Z,3.85
2023-04-09T18:55:06.893Z,3.55
2023-04-09T19:00:00.638Z,3.60
2023-04-09T19:02:29.208Z,3.78
2023-04-09T19:08:00.165Z,3.67
2023-04-09T19:10:27.417Z,4.05
2023-04-09T19:12:54.554Z,3.80
2023-04-09T19:20:15.901Z,3.70
2023-04-09T19:22:47.226Z,4.05
2023-04-09T19:25:15.071Z,3.80
2023-04-09T19:27:42.799Z,4.05
2023-04-09T19:32:44.623Z,4.13
2023-04-09T19:37:38.764Z,4.20
2023-04-09T19:40:09.100Z,4.60
2023-04-09T19:47:31.566Z,4.75
2023-04-09T19:49:59.547Z,5.35
2023-04-09T19:52:29.374Z,4.90
2023-04-09T20:19:55.615Z,5.00
2023-04-09T20:22:24.059Z,4.53
2023-04-09T20:24:52.275Z,4.75
2023-04-09T20:37:02.201Z,5.22
2023-04-09T20:40:08.742Z,5.07
2023-04-09T20:47:27.308Z,5.00
2023-04-09T20:59:39.790Z,5.82
2023-04-09T21:02:07.188Z,5.60
2023-04-09T21:04:34.396Z,5.68
2023-04-09T21:33:47.406Z,5.80
2023-04-09T21:43:40.708Z,5.82
2023-04-09T21:46:08.119Z,5.70
2023-04-09T22:15:20.833Z,5.63
2023-04-09T22:27:33.570Z,5.53
2023-04-09T22:30:00.933Z,5.25
2023-04-09T22:32:28.672Z,6.15
2023-04-09T22:34:55.783Z,5.53
2023-04-09T22:37:25.903Z,5.80
2023-04-09T22:39:53.267Z,5.40
2023-04-09T22:42:20.512Z,5.90
2023-04-09T22:44:47.991Z,5.65
2023-04-09T22:47:15.119Z,5.55
2023-04-09T22:49:42.149Z,5.78
2023-04-09T22:52:09.960Z,5.75
2023-04-09T22:54:38.175Z,5.70
2023-04-09T23:02:24.778Z,5.68
2023-04-09T23:04:52.064Z,5.55
2023-04-09T23:07:19.224Z,5.35
2023-04-09T23:09:46.587Z,5.30
2023-04-09T23:12:13.833Z,6.07
2023-04-09T23:17:06.651Z,5.30
2023-04-09T23:19:33.889Z,5.30
2023-04-09T23:22:01.129Z,5.40
2023-04-09T23:43:53.678Z,6.18
2023-04-09T23:46:21.129Z,6.47
2023-04-09T23:48:48.222Z,6.25
2023-04-09T23:53:44.514Z,5.60
2023-04-09T23:56:12.399Z,5.60
2023-04-09T23:58:39.481Z,6.00
